createdAt,value
2022-09-19T00:02:24.661Z,8.01
2022-09-19T00:05:28.572Z,7.99
2022-09-19T00:08:30.248Z,7.84
2022-09-19T00:11:31.995Z,7.80
2022-09-19T00:14:35.679Z,7.72
2022-09-19T00:17:37.349Z,7.80
2022-09-19T00:20:41.381Z,7.93
2022-09-19T00:24:01.840Z,7.98
2022-09-19T00:27:05.116Z,8.00
2022-09-19T00:30:08.917Z,8.08
2022-09-19T00:33:11.924Z,8.15
2022-09-19T00:36:14.912Z,8.25
2022-09-19T00:39:19.762Z,8.35
2022-09-19T00:42:24.915Z,8.36
2022-09-19T00:45:28.246Z,8.37
2022-09-19T00:48:31.770Z,8.54
2022-09-19T00:51:36.475Z,8.50
2022-09-19T00:54:41.743Z,8.50
2022-09-19T00:57:56.303Z,8.45
2022-09-19T01:01:00.845Z,8.40
2022-09-19T01:04:03.246Z,8.38
2022-09-19T01:07:15.237Z,8.39
2022-09-19T01:10:32.411Z,8.40
2022-09-19T01:13:39.724Z,8.41
2022-09-19T01:16:52.177Z,8.55
2022-09-19T01:20:18.770Z,8.68
2022-09-19T01:23:49.437Z,8.76
2022-09-19T01:27:10.577Z,8.67
2022-09-19T01:30:15.487Z,8.73
2022-09-19T01:33:23.236Z,8.75
2022-09-19T01:36:34.508Z,8.73
2022-09-19T01:39:41.288Z,8.68
2022-09-19T01:42:52.105Z,8.74
2022-09-19T01:46:02.032Z,8.81
2022-09-19T01:49:21.345Z,8.92
2022-09-19T01:52:51.373Z,8.91
2022-09-19T01:56:07.716Z,8.86
2022-09-19T01:59:23.161Z,8.83
2022-09-19T02:02:37.206Z,8.88
2022-09-19T02:05:52.116Z,8.95
2022-09-19T02:09:01.117Z,8.94
2022-09-19T02:12:23.961Z,9.01
2022-09-19T02:15:30.986Z,9.00
2022-09-19T02:18:43.113Z,8.90
2022-09-19T02:21:49.517Z,8.93
2022-09-19T02:24:57.888Z,8.98
2022-09-19T02:28:04.322Z,8.97
2022-09-19T02:31:09.736Z,8.91
2022-09-19T02:34:16.074Z,8.93
2022-09-19T02:37:26.724Z,8.97
2022-09-19T02:40:36.938Z,9.17
2022-09-19T02:43:47.305Z,9.09
2022-09-19T02:46:58.476Z,9.10
2022-09-19T02:50:08.499Z,9.00
2022-09-19T02:53:15.777Z,9.03
2022-09-19T02:56:21.411Z,9.13
2022-09-19T02:59:29.099Z,9.07
2022-09-19T03:02:42.705Z,9.05
2022-09-19T03:05:46.817Z,9.03
2022-09-19T03:08:51.893Z,9.18
2022-09-19T03:12:03.212Z,9.05
2022-09-19T03:15:07.338Z,9.13
2022-09-19T03:18:14.353Z,9.02
2022-09-19T03:21:22.944Z,9.18
2022-09-19T03:24:24.702Z,9.16
2022-09-19T03:27:26.334Z,9.09
2022-09-19T03:30:28.087Z,9.16
2022-09-19T03:33:30.816Z,9.29
2022-09-19T03:36:37.438Z,9.21
2022-09-19T03:39:45.813Z,9.33
2022-09-19T03:42:53.978Z,9.25
2022-09-19T03:46:02.779Z,9.23
2022-09-19T03:49:04.910Z,9.35
2022-09-19T03:52:08.073Z,9.38
2022-09-19T03:55:11.918Z,9.28
2022-09-19T03:58:19.464Z,9.25
2022-09-19T04:01:22.276Z,9.34
2022-09-19T04:04:27.300Z,9.25
2022-09-19T04:07:32.973Z,9.34
2022-09-19T04:10:35.410Z,9.36
2022-09-19T04:13:38.256Z,9.40
2022-09-19T04:16:55.496Z,9.43
2022-09-19T04:20:10.946Z,9.39
2022-09-19T04:23:21.276Z,9.36
2022-09-19T04:26:32.017Z,9.37
2022-09-19T04:29:35.967Z,9.39
2022-09-19T04:32:41.012Z,9.39
2022-09-19T04:35:45.582Z,9.38
2022-09-19T04:38:50.460Z,9.33
2022-09-19T04:41:59.167Z,9.41
2022-09-19T04:45:01.010Z,9.42
2022-09-19T04:48:31.631Z,9.44
2022-09-19T04:51:34.124Z,9.41
2022-09-19T04:54:37.831Z,9.35
2022-09-19T04:57:39.964Z,9.31
2022-09-19T05:00:51.313Z,9.35
2022-09-19T05:03:53.605Z,9.33
2022-09-19T05:06:56.385Z,9.36
2022-09-19T05:09:59.707Z,9.42
2022-09-19T05:13:08.723Z,9.42
2022-09-19T05:16:14.887Z,9.44
2022-09-19T05:19:25.537Z,9.48
2022-09-19T05:22:29.831Z,9.36
2022-09-19T05:25:37.417Z,9.43
2022-09-19T05:28:39.156Z,9.53
2022-09-19T05:31:41.240Z,9.49
2022-09-19T05:34:57.898Z,9.61
2022-09-19T05:38:24.749Z,9.61
2022-09-19T05:41:34.110Z,9.60
2022-09-19T05:44:47.078Z,9.51
2022-09-19T05:47:50.268Z,9.63
2022-09-19T05:50:53.410Z,9.61
2022-09-19T05:53:56.028Z,9.57
2022-09-19T05:57:25.179Z,9.77
2022-09-19T06:00:28.662Z,9.71
2022-09-19T06:03:30.893Z,9.74
2022-09-19T06:06:37.331Z,9.75
2022-09-19T06:09:41.252Z,9.80
2022-09-19T06:12:44.238Z,9.85
2022-09-19T06:15:46.358Z,9.96
2022-09-19T06:18:59.033Z,10.02
2022-09-19T06:22:01.586Z,9.92
2022-09-19T06:25:04.298Z,9.94
2022-09-19T06:28:11.746Z,10.04
2022-09-19T06:31:19.274Z,9.97
2022-09-19T06:34:48.339Z,9.96
2022-09-19T06:37:58.429Z,10.01
2022-09-19T06:41:00.594Z,10.09
2022-09-19T06:44:19.009Z,10.02
2022-09-19T06:47:38.955Z,9.96
2022-09-19T06:50:49.456Z,10.19
2022-09-19T06:53:53.161Z,10.22
2022-09-19T06:56:55.013Z,10.29
2022-09-19T06:59:58.121Z,10.03
2022-09-19T07:03:02.300Z,10.09
2022-09-19T07:06:04.637Z,10.17
2022-09-19T07:09:10.099Z,10.08
2022-09-19T07:12:17.357Z,10.28
2022-09-19T07:15:22.855Z,10.46
2022-09-19T07:18:24.789Z,10.67
2022-09-19T07:21:27.985Z,10.51
2022-09-19T07:24:31.845Z,10.53
2022-09-19T07:27:57.519Z,10.46
2022-09-19T07:31:02.253Z,10.62
2022-09-19T07:34:07.467Z,10.70
2022-09-19T07:37:17.916Z,10.80
2022-09-19T07:40:25.777Z,10.91
2022-09-19T07:43:34.773Z,10.95
2022-09-19T07:47:27.915Z,11.00
2022-09-19T07:50:59.957Z,11.04
2022-09-19T07:54:09.335Z,10.87
2022-09-19T07:57:11.350Z,10.96
2022-09-19T08:00:13.569Z,10.92
2022-09-19T08:03:27.723Z,11.08
2022-09-19T08:06:30.386Z,11.20
2022-09-19T08:09:33.870Z,11.20
2022-09-19T08:12:46.414Z,11.30
2022-09-19T08:15:49.792Z,11.33
2022-09-19T08:18:52.911Z,11.57
2022-09-19T08:21:55.444Z,11.61
2022-09-19T08:24:57.137Z,11.66
2022-09-19T08:27:58.957Z,11.80
2022-09-19T08:31:01.243Z,11.69
2022-09-19T08:34:09.818Z,11.89
2022-09-19T08:37:12.999Z,11.84
2022-09-19T08:40:27.789Z,11.86
2022-09-19T08:43:38.232Z,12.00
2022-09-19T08:46:47.076Z,12.02
2022-09-19T08:49:55.629Z,11.93
2022-09-19T08:53:02.349Z,12.07
2022-09-19T08:56:06.599Z,12.13
2022-09-19T08:59:13.733Z,12.14
2022-09-19T09:03:00.244Z,12.24
2022-09-19T09:06:16.224Z,12.40
2022-09-19T09:09:31.513Z,12.46
2022-09-19T09:12:45.639Z,12.42
2022-09-19T09:16:00.394Z,12.46
2022-09-19T09:19:18.179Z,12.47
2022-09-19T09:22:26.990Z,12.47
2022-09-19T09:25:58.546Z,12.66
2022-09-19T09:29:12.132Z,12.61
2022-09-19T09:32:35.306Z,12.60
2022-09-19T09:35:48.226Z,12.62
2022-09-19T09:38:56.588Z,12.82
2022-09-19T09:42:05.043Z,12.82
2022-09-19T09:45:17.819Z,12.79
2022-09-19T09:48:27.899Z,12.87
2022-09-19T09:51:41.170Z,12.93
2022-09-19T09:55:18.640Z,13.02
2022-09-19T09:58:27.461Z,13.20
2022-09-19T10:02:00.940Z,13.34
2022-09-19T10:05:09.151Z,13.59
2022-09-19T10:08:19.772Z,13.68
2022-09-19T10:15:05.389Z,13.86
2022-09-19T10:18:20.728Z,13.81
2022-09-19T10:21:29.800Z,13.88
2022-09-19T10:24:51.432Z,13.86
2022-09-19T10:28:15.093Z,14.08
2022-09-19T10:31:31.789Z,14.18
2022-09-19T10:34:40.529Z,14.33
2022-09-19T10:38:00.840Z,14.54
2022-09-19T10:41:03.496Z,14.61
2022-09-19T10:44:28.030Z,14.68
2022-09-19T10:47:30.875Z,14.47
2022-09-19T10:50:46.341Z,14.42
2022-09-19T10:53:54.781Z,14.37
2022-09-19T10:56:59.710Z,14.31
2022-09-19T11:00:04.977Z,14.38
2022-09-19T11:03:21.634Z,14.72
2022-09-19T11:06:23.403Z,14.94
2022-09-19T11:09:36.487Z,15.07
2022-09-19T11:12:43.347Z,15.28
2022-09-19T11:15:56.451Z,15.11
2022-09-19T11:19:17.757Z,15.06
2022-09-19T11:22:38.282Z,15.15
2022-09-19T11:25:48.077Z,15.61
2022-09-19T11:29:05.997Z,15.26
2022-09-19T11:35:50.002Z,15.66
2022-09-19T11:42:41.315Z,15.73
2022-09-19T11:45:56.807Z,15.88
2022-09-19T11:49:18.852Z,15.88
2022-09-19T11:52:32.208Z,16.33
2022-09-19T11:55:39.805Z,16.32
2022-09-19T11:58:51.037Z,16.00
2022-09-19T12:02:08.352Z,16.20
2022-09-19T12:05:22.416Z,15.91
2022-09-19T12:08:33.381Z,15.88
2022-09-19T12:11:42.587Z,15.78
2022-09-19T12:14:50.113Z,16.50
2022-09-19T12:18:03.597Z,16.68
2022-09-19T12:21:13.988Z,16.49
2022-09-19T12:24:39.153Z,16.94
2022-09-19T12:27:48.085Z,16.66
2022-09-19T12:31:00.108Z,16.17
2022-09-19T12:34:12.275Z,16.41
2022-09-19T12:37:23.646Z,16.41
2022-09-19T12:40:32.193Z,16.41
2022-09-19T12:43:42.313Z,16.10
2022-09-19T12:46:55.351Z,15.91
2022-09-19T12:50:17.732Z,15.64
2022-09-19T12:53:35.830Z,15.48
2022-09-19T12:56:43.628Z,15.35
2022-09-19T12:59:51.175Z,15.66
2022-09-19T13:03:02.038Z,15.94
2022-09-19T13:06:10.197Z,15.96
2022-09-19T13:09:21.272Z,15.94
2022-09-19T13:12:33.762Z,15.55
2022-09-19T13:15:39.784Z,16.15
2022-09-19T13:19:03.457Z,16.19
2022-09-19T13:22:19.069Z,16.35
2022-09-19T13:25:30.212Z,16.78
2022-09-19T13:28:45.814Z,16.96
2022-09-19T13:32:03.043Z,16.94
2022-09-19T13:35:16.910Z,16.29
2022-09-19T13:38:26.881Z,16.23
2022-09-19T13:41:35.831Z,16.26
2022-09-19T13:44:43.010Z,16.19
2022-09-19T13:47:48.620Z,16.32
2022-09-19T13:50:56.229Z,16.17
2022-09-19T13:54:32.154Z,16.28
2022-09-19T13:57:40.111Z,15.98
2022-09-19T14:00:45.430Z,16.07
2022-09-19T14:03:52.353Z,16.04
2022-09-19T14:10:26.694Z,16.51
2022-09-19T14:13:39.444Z,16.64
2022-09-19T14:16:41.162Z,16.51
2022-09-19T14:19:45.896Z,16.07
2022-09-19T14:22:47.812Z,15.89
2022-09-19T14:25:56.275Z,15.75
2022-09-19T14:29:10.150Z,15.88
2022-09-19T14:32:24.073Z,16.13
2022-09-19T14:35:35.163Z,16.03
2022-09-19T14:39:12.611Z,15.82
2022-09-19T14:42:37.849Z,16.16
2022-09-19T14:46:07.387Z,16.12
2022-09-19T14:49:19.294Z,16.06
2022-09-19T14:52:24.426Z,15.78
2022-09-19T14:55:29.414Z,15.70
2022-09-19T14:58:32.693Z,15.82
2022-09-19T15:01:36.972Z,15.73
2022-09-19T15:04:41.275Z,16.47
2022-09-19T15:07:43.377Z,17.37
2022-09-19T15:10:47.139Z,16.73
2022-09-19T15:13:53.306Z,16.77
2022-09-19T15:17:10.617Z,16.83
2022-09-19T15:20:17.431Z,16.46
2022-09-19T15:23:19.925Z,16.22
2022-09-19T15:26:29.658Z,16.14
2022-09-19T15:29:41.055Z,15.97
2022-09-19T15:32:47.937Z,16.11
2022-09-19T15:35:52.871Z,15.92
2022-09-19T15:38:55.177Z,15.84
2022-09-19T15:41:57.028Z,15.79
2022-09-19T15:45:01.111Z,15.77
2022-09-19T15:48:11.230Z,15.77
2022-09-19T15:51:27.358Z,15.60
2022-09-19T15:54:31.643Z,15.39
2022-09-19T15:57:47.987Z,15.30
2022-09-19T16:00:50.115Z,15.06
2022-09-19T16:03:59.346Z,14.94
2022-09-19T16:07:20.130Z,14.90
2022-09-19T16:10:49.806Z,14.94
2022-09-19T16:13:50.041Z,15.01
2022-09-19T16:16:55.245Z,14.94
2022-09-19T16:20:00.287Z,14.68
2022-09-19T16:23:03.840Z,14.58
2022-09-19T16:26:05.618Z,14.70
2022-09-19T16:29:07.396Z,14.62
2022-09-19T16:32:14.451Z,14.56
2022-09-19T16:35:19.869Z,14.56
2022-09-19T16:38:25.432Z,14.81
2022-09-19T16:41:32.458Z,14.97
2022-09-19T16:44:40.709Z,14.93
2022-09-19T16:47:42.895Z,14.85
2022-09-19T16:50:45.973Z,14.86
2022-09-19T16:53:47.594Z,15.02
2022-09-19T16:56:49.225Z,14.99
2022-09-19T16:59:52.814Z,14.87
2022-09-19T17:02:55.573Z,14.80
2022-09-19T17:05:59.158Z,14.90
2022-09-19T17:09:00.770Z,14.69
2022-09-19T17:12:02.724Z,14.52
2022-09-19T17:15:20.234Z,14.51
2022-09-19T17:18:22.120Z,14.29
2022-09-19T17:21:25.297Z,14.29
2022-09-19T17:24:30.252Z,14.06
2022-09-19T17:27:31.877Z,13.96
2022-09-19T17:30:33.633Z,14.10
2022-09-19T17:33:37.482Z,14.06
2022-09-19T17:36:40.434Z,14.02
2022-09-19T17:39:42.463Z,13.80
2022-09-19T17:42:44.214Z,13.97
2022-09-19T17:45:47.038Z,14.05
2022-09-19T17:48:50.998Z,14.15
2022-09-19T17:51:53.947Z,13.85
2022-09-19T17:54:55.666Z,13.84
2022-09-19T17:57:57.573Z,13.80
2022-09-19T18:01:19.245Z,13.82
2022-09-19T18:04:20.975Z,13.72
2022-09-19T18:07:30.874Z,13.70
2022-09-19T18:10:33.826Z,13.64
2022-09-19T18:13:39.827Z,13.43
2022-09-19T18:16:43.237Z,13.28
2022-09-19T18:19:45.239Z,13.26
2022-09-19T18:22:48.279Z,13.20
2022-09-19T18:25:50.278Z,13.14
2022-09-19T18:28:54.272Z,13.11
2022-09-19T18:31:58.753Z,13.06
2022-09-19T18:35:04.059Z,13.02
2022-09-19T18:38:07.587Z,12.99
2022-09-19T18:41:10.488Z,13.04
2022-09-19T18:44:12.144Z,13.01
2022-09-19T18:47:15.030Z,13.06
2022-09-19T18:50:16.674Z,13.13
2022-09-19T18:53:19.720Z,13.08
2022-09-19T18:56:22.310Z,13.08
2022-09-19T18:59:24.329Z,12.99
2022-09-19T19:02:26.099Z,13.12
2022-09-19T19:05:28.491Z,13.23
2022-09-19T19:08:34.590Z,13.29
2022-09-19T19:11:36.869Z,13.15
2022-09-19T19:14:39.339Z,12.96
2022-09-19T19:17:41.127Z,13.03
2022-09-19T19:20:42.955Z,13.01
2022-09-19T19:23:45.998Z,13.02
2022-09-19T19:26:47.614Z,13.07
2022-09-19T19:29:49.374Z,12.99
2022-09-19T19:32:51.002Z,13.04
2022-09-19T19:36:00.896Z,13.08
2022-09-19T19:39:08.602Z,12.73
2022-09-19T19:42:10.235Z,12.42
2022-09-19T19:45:11.896Z,12.39
2022-09-19T19:48:13.655Z,12.37
2022-09-19T19:51:17.678Z,12.34
2022-09-19T19:54:20.805Z,12.28
2022-09-19T19:57:22.446Z,12.15
2022-09-19T20:00:24.190Z,11.97
2022-09-19T20:03:25.810Z,11.93
2022-09-19T20:06:29.134Z,11.92
2022-09-19T20:09:32.154Z,11.90
2022-09-19T20:12:33.807Z,11.91
2022-09-19T20:15:35.484Z,11.96
2022-09-19T20:18:43.670Z,11.78
2022-09-19T20:21:47.944Z,11.81
2022-09-19T20:24:51.044Z,11.82
2022-09-19T20:27:53.370Z,11.83
2022-09-19T20:31:00.995Z,11.61
2022-09-19T20:34:06.274Z,11.41
2022-09-19T20:37:07.981Z,11.35
2022-09-19T20:40:12.717Z,11.52
2022-09-19T20:43:14.236Z,11.44
2022-09-19T20:46:17.347Z,11.37
2022-09-19T20:49:19.033Z,11.13
2022-09-19T20:52:20.820Z,11.12
2022-09-19T20:55:24.211Z,10.93
2022-09-19T20:58:26.017Z,10.90
2022-09-19T21:01:31.269Z,10.89
2022-09-19T21:04:35.039Z,10.87
2022-09-19T21:07:37.746Z,10.89
2022-09-19T21:10:40.742Z,11.00
2022-09-19T21:13:44.725Z,11.03
2022-09-19T21:16:49.022Z,10.90
2022-09-19T21:19:50.720Z,11.05
2022-09-19T21:22:53.893Z,11.07
2022-09-19T21:26:01.670Z,11.04
2022-09-19T21:29:05.222Z,11.02
2022-09-19T21:32:07.045Z,10.87
2022-09-19T21:35:08.978Z,10.91
2022-09-19T21:38:10.620Z,10.90
2022-09-19T21:41:14.205Z,10.79
2022-09-19T21:44:15.828Z,10.87
2022-09-19T21:47:17.541Z,10.93
2022-09-19T21:50:21.305Z,10.95
2022-09-19T21:53:25.380Z,11.08
2022-09-19T21:56:30.140Z,11.01
2022-09-19T21:59:33.938Z,11.05
2022-09-19T22:02:35.674Z,11.08
2022-09-19T22:05:37.386Z,11.23
2022-09-19T22:08:39.999Z,11.25
2022-09-19T22:11:43.003Z,11.11
2022-09-19T22:14:44.641Z,11.12
2022-09-19T22:17:46.335Z,11.05
2022-09-19T22:20:49.120Z,11.04
2022-09-19T22:23:52.009Z,11.02
2022-09-19T22:26:54.993Z,11.15
2022-09-19T22:29:56.658Z,11.22
2022-09-19T22:32:58.249Z,11.28
2022-09-19T22:36:03.883Z,11.18
2022-09-19T22:39:07.945Z,11.21
2022-09-19T22:42:10.952Z,11.18
2022-09-19T22:45:12.605Z,11.20
2022-09-19T22:48:14.228Z,11.20
2022-09-19T22:51:18.586Z,11.19
2022-09-19T22:54:20.411Z,11.22
2022-09-19T22:57:23.426Z,11.21
2022-09-19T23:00:27.398Z,11.18
2022-09-19T23:03:29.549Z,11.23
2022-09-19T23:06:34.877Z,11.13
2022-09-19T23:09:36.700Z,11.07
2022-09-19T23:12:40.226Z,11.12
2022-09-19T23:15:41.819Z,11.18
2022-09-19T23:18:43.517Z,11.11
2022-09-19T23:21:47.491Z,11.00
2022-09-19T23:24:49.156Z,11.00
2022-09-19T23:27:52.664Z,10.92
2022-09-19T23:30:54.292Z,10.79
2022-09-19T23:33:58.191Z,10.70
2022-09-19T23:36:59.794Z,10.41
2022-09-19T23:40:01.993Z,10.54
2022-09-19T23:43:05.563Z,10.45
2022-09-19T23:46:07.394Z,10.58
2022-09-19T23:49:09.312Z,10.51
2022-09-19T23:52:11.165Z,10.51
2022-09-19T23:55:12.805Z,10.63
2022-09-19T23:58:16.461Z,10.53
